Time;durP1;ratioP1;P1;durP2;ratioP2;P2;SDS_P1;SDS_P2;PMS_P1;PMS_P2;Temp;Humidity;BMP_temperature;BMP_pressure;BME280_temperature;BME280_humidity;BME280_pressure;Samples;Min_cycle;Max_cycle;Signal;HPM_P1;HPM_P2
2023/06/25 00:02:08;;;;;;;;;;;;;;;16.86;95.10;96296.19;5046000;28;19925;-75
2023/06/25 00:04:35;;;;;;;;;;;;;;;16.83;95.19;96293.81;5052467;28;19940;-75
2023/06/25 00:07:03;;;;;;;;;;;;;;;16.78;95.69;96290.75;5053583;28;19925;-75
2023/06/25 00:09:29;;;;;;;;;;;;;;;16.65;96.64;96296.94;5052361;28;20015;-74
2023/06/25 00:11:55;;;;;;;;;;;;;;;16.52;97.22;96291.00;5052532;28;19975;-75
2023/06/25 00:14:22;;;;;;;;;;;;;;;16.45;98.25;96289.81;5048114;28;19929;-75
2023/06/25 00:16:48;;;;;;;;;;;;;;;16.40;98.85;96284.94;5051997;28;19932;-74
2023/06/25 00:19:17;;;;;;;;;;;;;;;16.42;98.96;96293.47;5044847;28;19991;-74
2023/06/25 00:21:44;;;;;;;;;;;;;;;16.36;98.87;96290.53;5051101;28;19932;-74
2023/06/25 00:24:11;;;;;;;;;;;;;;;16.17;100.00;96298.97;5051606;28;19925;-74
2023/06/25 00:26:40;;;;;;;;;;;;;;;16.04;100.00;96293.81;5050667;28;19929;-74
2023/06/25 00:29:06;;;;;;;;;;;;;;;16.07;100.00;96296.22;5046449;28;19924;-74
2023/06/25 00:31:33;;;;;;;;;;;;;;;16.14;100.00;96291.34;5048751;28;19925;-76
2023/06/25 00:33:59;;;;;;;;;;;;;;;16.24;100.00;96292.31;5051684;28;19931;-74
2023/06/25 00:36:25;;;;;;;;;;;;;;;16.28;100.00;96291.13;5049655;28;19963;-74
2023/06/25 00:38:51;;;;;;;;;;;;;;;16.16;100.00;96286.81;5051273;28;19929;-74
2023/06/25 00:41:19;;;;;;;;;;;;;;;16.19;100.00;96287.41;5048306;28;20342;-74
2023/06/25 00:43:45;;;;;;;;;;;;;;;16.23;100.00;96284.56;5045856;28;19937;-75
2023/06/25 00:46:15;;;;;;;;;;;;;;;16.24;100.00;96281.88;5048841;28;19929;-75
2023/06/25 00:48:45;;;;;;;;;;;;;;;16.09;100.00;96283.88;5043013;28;19933;-74
2023/06/25 00:51:11;;;;;;;;;;;;;;;15.97;100.00;96272.56;5044934;28;19948;-74
2023/06/25 00:53:38;;;;;;;;;;;;;;;15.99;100.00;96267.22;5045633;28;19929;-74
2023/06/25 00:56:05;;;;;;;;;;;;;;;15.90;100.00;96270.53;5050573;28;19932;-75
2023/06/25 00:58:37;;;;;;;;;;;;;;;15.85;100.00;96272.66;5052033;28;19987;-74
2023/06/25 01:01:05;;;;;;;;;;;;;;;15.75;100.00;96276.91;5051976;28;19999;-75
2023/06/25 01:03:36;;;;;;;;;;;;;;;15.75;100.00;96272.53;5048234;28;20399;-74
2023/06/25 01:06:05;;;;;;;;;;;;;;;15.73;100.00;96272.66;5052170;28;19925;-75
2023/06/25 01:08:32;;;;;;;;;;;;;;;15.77;100.00;96264.59;5051397;28;19971;-75
2023/06/25 01:10:58;;;;;;;;;;;;;;;15.71;100.00;96260.66;5048757;28;19931;-75
2023/06/25 01:13:24;;;;;;;;;;;;;;;15.61;100.00;96259.63;5048763;28;19935;-74
2023/06/25 01:15:52;;;;;;;;;;;;;;;15.47;100.00;96255.47;5045894;28;20023;-74
2023/06/25 01:18:19;;;;;;;;;;;;;;;15.37;100.00;96257.09;5045304;28;19932;-74
2023/06/25 01:20:45;;;;;;;;;;;;;;;15.29;100.00;96259.44;5045153;28;19955;-75
2023/06/25 01:23:13;;;;;;;;;;;;;;;15.27;100.00;96253.50;5047136;28;20275;-75
2023/06/25 01:25:40;;;;;;;;;;;;;;;15.36;100.00;96250.22;5045234;28;19924;-75
2023/06/25 01:28:06;;;;;;;;;;;;;;;15.35;100.00;96245.91;5050348;28;19931;-75
2023/06/25 01:30:32;;;;;;;;;;;;;;;15.04;100.00;96247.34;5040475;28;20387;-75
2023/06/25 01:32:59;;;;;;;;;;;;;;;14.99;100.00;96247.69;5049696;28;19924;-75
2023/06/25 01:35:25;;;;;;;;;;;;;;;14.90;100.00;96248.34;5051170;28;19933;-75
2023/06/25 01:37:51;;;;;;;;;;;;;;;14.91;100.00;96247.44;5046305;28;20349;-75
2023/06/25 01:40:19;;;;;;;;;;;;;;;14.92;100.00;96247.31;5047762;28;19932;-74
2023/06/25 01:42:45;;;;;;;;;;;;;;;14.82;100.00;96248.06;5040382;28;19937;-75
2023/06/25 01:45:12;;;;;;;;;;;;;;;14.76;100.00;96242.38;5041529;28;19925;-75
2023/06/25 01:47:38;;;;;;;;;;;;;;;14.69;100.00;96238.53;5046584;28;19932;-75
2023/06/25 01:50:04;;;;;;;;;;;;;;;14.71;100.00;96234.03;5050661;28;19937;-75
2023/06/25 01:52:31;;;;;;;;;;;;;;;14.62;100.00;96237.31;5039538;28;19929;-75
2023/06/25 01:54:57;;;;;;;;;;;;;;;14.55;100.00;96230.88;5042666;28;19936;-75
2023/06/25 01:57:24;;;;;;;;;;;;;;;14.61;100.00;96222.63;5037764;28;19971;-74
2023/06/25 01:59:51;;;;;;;;;;;;;;;14.71;100.00;96218.38;5046231;28;19924;-74
2023/06/25 02:02:17;;;;;;;;;;;;;;;14.80;100.00;96218.69;5050167;28;19932;-74
2023/06/25 02:04:43;;;;;;;;;;;;;;;14.85;100.00;96219.19;5044325;28;19932;-74
2023/06/25 02:07:10;;;;;;;;;;;;;;;14.89;100.00;96218.00;5046181;28;20043;-74
2023/06/25 02:09:36;;;;;;;;;;;;;;;14.87;100.00;96214.66;5042367;28;19975;-75
2023/06/25 02:12:03;;;;;;;;;;;;;;;14.86;100.00;96207.78;5041720;28;20418;-75
2023/06/25 02:14:30;;;;;;;;;;;;;;;14.89;100.00;96202.34;5045670;28;19929;-74
2023/06/25 02:16:56;;;;;;;;;;;;;;;14.84;100.00;96201.88;5047006;28;19925;-75
2023/06/25 02:19:23;;;;;;;;;;;;;;;14.89;100.00;96204.97;5049793;28;19939;-74
2023/06/25 02:21:49;;;;;;;;;;;;;;;14.93;100.00;96206.41;5046035;28;19971;-75
2023/06/25 02:24:15;;;;;;;;;;;;;;;14.97;100.00;96203.44;5050091;28;19998;-75
2023/06/25 02:26:42;;;;;;;;;;;;;;;15.01;100.00;96194.44;5044834;28;19925;-74
2023/06/25 02:29:08;;;;;;;;;;;;;;;15.09;100.00;96200.88;5046892;28;19932;-74
2023/06/25 02:31:35;;;;;;;;;;;;;;;15.14;100.00;96201.41;5047827;28;19925;-74
2023/06/25 02:34:02;;;;;;;;;;;;;;;15.07;100.00;96203.63;5049433;28;19925;-75
2023/06/25 02:36:28;;;;;;;;;;;;;;;14.93;100.00;96196.81;5050347;28;19971;-74
2023/06/25 02:38:55;;;;;;;;;;;;;;;14.71;100.00;96194.91;5049217;28;19970;-75
2023/06/25 02:41:21;;;;;;;;;;;;;;;14.56;100.00;96198.63;5051120;28;19925;-75
2023/06/25 02:43:47;;;;;;;;;;;;;;;14.52;100.00;96197.19;5042618;28;19931;-75
2023/06/25 02:46:13;;;;;;;;;;;;;;;14.52;100.00;96202.41;5045614;28;19929;-75
2023/06/25 02:48:42;;;;;;;;;;;;;;;14.44;100.00;96202.09;5046661;28;19929;-74
2023/06/25 02:51:09;;;;;;;;;;;;;;;14.50;100.00;96204.31;5039325;28;19925;-75
2023/06/25 02:53:35;;;;;;;;;;;;;;;14.56;100.00;96200.41;5043574;28;20294;-76
2023/06/25 02:56:01;;;;;;;;;;;;;;;14.66;100.00;96199.66;5044994;28;19924;-76
2023/06/25 02:58:27;;;;;;;;;;;;;;;14.77;100.00;96199.69;5043095;28;19929;-75
2023/06/25 03:00:54;;;;;;;;;;;;;;;14.77;100.00;96198.88;5046248;28;19955;-76
2023/06/25 03:03:20;;;;;;;;;;;;;;;14.77;100.00;96207.53;5049634;28;20272;-76
2023/06/25 03:05:48;;;;;;;;;;;;;;;14.79;100.00;96204.78;5048274;28;20321;-75
2023/06/25 03:08:14;;;;;;;;;;;;;;;14.63;100.00;96201.66;5046172;28;19936;-76
2023/06/25 03:10:40;;;;;;;;;;;;;;;14.63;100.00;96209.47;5052740;28;19928;-76
2023/06/25 03:13:06;;;;;;;;;;;;;;;14.52;100.00;96202.41;5045261;28;19928;-76
2023/06/25 03:15:33;;;;;;;;;;;;;;;14.38;100.00;96207.75;5048689;28;19925;-75
2023/06/25 03:17:59;;;;;;;;;;;;;;;14.28;100.00;96205.78;5054113;28;19925;-75
2023/06/25 03:20:25;;;;;;;;;;;;;;;14.25;100.00;96200.78;5050996;28;20391;-76
2023/06/25 03:22:53;;;;;;;;;;;;;;;14.16;100.00;96198.81;5048009;28;19925;-76
2023/06/25 03:25:19;;;;;;;;;;;;;;;14.09;100.00;96201.97;5048420;28;19925;-76
2023/06/25 03:27:45;;;;;;;;;;;;;;;13.85;100.00;96188.91;5054538;28;19928;-75
2023/06/25 03:30:12;;;;;;;;;;;;;;;13.69;100.00;96192.56;5045877;28;19925;-76
2023/06/25 03:32:38;;;;;;;;;;;;;;;13.68;100.00;96192.63;5054406;28;19959;-76
2023/06/25 03:35:05;;;;;;;;;;;;;;;13.72;100.00;96181.06;5049835;28;19925;-75
2023/06/25 03:37:31;;;;;;;;;;;;;;;13.74;100.00;96184.41;5054373;28;19925;-75
2023/06/25 03:39:58;;;;;;;;;;;;;;;13.78;100.00;96189.31;5052247;28;19929;-76
2023/06/25 03:42:25;;;;;;;;;;;;;;;13.82;100.00;96183.88;5046561;28;19929;-75
2023/06/25 03:44:52;;;;;;;;;;;;;;;13.86;100.00;96180.13;5047167;28;19925;-75
2023/06/25 03:47:19;;;;;;;;;;;;;;;13.94;100.00;96183.03;5042773;28;19924;-76
2023/06/25 03:49:45;;;;;;;;;;;;;;;13.94;100.00;96190.84;5052149;28;19928;-75
2023/06/25 03:52:11;;;;;;;;;;;;;;;13.90;100.00;96178.97;5043515;28;19925;-75
2023/06/25 03:54:38;;;;;;;;;;;;;;;13.98;100.00;96182.75;5045905;28;20081;-74
2023/06/25 03:57:06;;;;;;;;;;;;;;;13.88;100.00;96176.50;5049595;28;19925;-76
2023/06/25 03:59:32;;;;;;;;;;;;;;;13.84;100.00;96175.06;5045525;28;19925;-75
2023/06/25 04:01:58;;;;;;;;;;;;;;;13.88;100.00;96175.66;5046676;28;19925;-75
2023/06/25 04:04:25;;;;;;;;;;;;;;;13.97;100.00;96183.66;5048532;28;20672;-75
2023/06/25 04:06:51;;;;;;;;;;;;;;;14.01;100.00;96181.66;5050011;28;19924;-75
2023/06/25 04:09:18;;;;;;;;;;;;;;;14.11;100.00;96179.25;5052746;28;19929;-75
2023/06/25 04:11:45;;;;;;;;;;;;;;;14.22;100.00;96174.97;5048157;28;19929;-75
2023/06/25 04:14:12;;;;;;;;;;;;;;;14.31;100.00;96177.84;5047778;28;19943;-75
2023/06/25 04:16:39;;;;;;;;;;;;;;;14.45;100.00;96175.09;5051803;28;19929;-74
2023/06/25 04:19:05;;;;;;;;;;;;;;;14.50;100.00;96175.66;5049043;28;19929;-75
2023/06/25 04:21:31;;;;;;;;;;;;;;;14.51;100.00;96165.09;5050373;28;19971;-75
2023/06/25 04:23:57;;;;;;;;;;;;;;;14.59;100.00;96174.97;5048318;28;19932;-75
2023/06/25 04:26:24;;;;;;;;;;;;;;;14.63;100.00;96172.97;5050588;28;20304;-75
2023/06/25 04:28:50;;;;;;;;;;;;;;;14.68;100.00;96179.53;5047896;28;19936;-74
2023/06/25 04:31:17;;;;;;;;;;;;;;;14.79;100.00;96176.09;5044617;28;19924;-76
2023/06/25 04:33:44;;;;;;;;;;;;;;;14.89;100.00;96174.50;5044503;28;20294;-75
2023/06/25 04:36:10;;;;;;;;;;;;;;;14.97;100.00;96173.94;5045624;28;19929;-75
2023/06/25 04:38:37;;;;;;;;;;;;;;;14.91;100.00;96171.81;5045789;28;19986;-76
2023/06/25 04:41:03;;;;;;;;;;;;;;;14.94;100.00;96177.63;5045823;28;19931;-75
2023/06/25 04:43:30;;;;;;;;;;;;;;;15.03;100.00;96176.09;5044560;28;19932;-75
2023/06/25 04:45:56;;;;;;;;;;;;;;;15.05;100.00;96166.38;5050681;28;19925;-75
2023/06/25 04:48:24;;;;;;;;;;;;;;;15.20;100.00;96170.47;5053201;28;20338;-76
2023/06/25 04:50:50;;;;;;;;;;;;;;;15.26;100.00;96169.16;5046724;28;19929;-75
2023/06/25 04:53:16;;;;;;;;;;;;;;;15.26;100.00;96163.94;5052566;28;20387;-76
2023/06/25 04:55:43;;;;;;;;;;;;;;;15.34;100.00;96163.38;5039354;28;19999;-76
2023/06/25 04:58:09;;;;;;;;;;;;;;;15.22;100.00;96162.50;5051133;28;19970;-75
2023/06/25 05:00:35;;;;;;;;;;;;;;;15.29;100.00;96166.31;5049349;28;19959;-75
2023/06/25 05:03:01;;;;;;;;;;;;;;;15.37;100.00;96171.78;5051392;28;19929;-76
2023/06/25 05:05:29;;;;;;;;;;;;;;;15.44;100.00;96175.59;5051717;28;20345;-75
2023/06/25 05:07:55;;;;;;;;;;;;;;;15.57;100.00;96167.66;5052302;28;19929;-75
2023/06/25 05:10:22;;;;;;;;;;;;;;;15.71;100.00;96174.47;5048021;28;19974;-76
2023/06/25 05:12:48;;;;;;;;;;;;;;;15.70;100.00;96176.25;5052366;28;19940;-75
2023/06/25 05:15:14;;;;;;;;;;;;;;;15.80;100.00;96175.56;5041265;28;20341;-76
2023/06/25 05:17:41;;;;;;;;;;;;;;;15.86;100.00;96175.91;5051023;28;19932;-75
2023/06/25 05:20:08;;;;;;;;;;;;;;;15.70;100.00;96183.25;5047723;28;19924;-75
2023/06/25 05:22:36;;;;;;;;;;;;;;;15.62;100.00;96176.00;5046025;28;20395;-75
2023/06/25 05:25:02;;;;;;;;;;;;;;;15.90;100.00;96177.31;5047576;28;19928;-75
2023/06/25 05:27:28;;;;;;;;;;;;;;;16.10;100.00;96178.41;5051700;28;20322;-75
2023/06/25 05:29:55;;;;;;;;;;;;;;;16.31;100.00;96186.31;5050202;28;19932;-75
2023/06/25 05:32:21;;;;;;;;;;;;;;;16.45;100.00;96187.84;5046724;28;19925;-75
2023/06/25 05:34:47;;;;;;;;;;;;;;;16.61;100.00;96183.06;5046085;28;20387;-75
2023/06/25 05:37:13;;;;;;;;;;;;;;;16.53;100.00;96179.38;5048205;28;19925;-74
2023/06/25 05:39:41;;;;;;;;;;;;;;;16.55;100.00;96178.31;5050386;28;20416;-75
2023/06/25 05:42:07;;;;;;;;;;;;;;;16.73;100.00;96177.81;5038887;28;19928;-76
2023/06/25 05:44:34;;;;;;;;;;;;;;;16.66;100.00;96180.91;5049713;28;20383;-76
2023/06/25 05:47:00;;;;;;;;;;;;;;;16.61;100.00;96182.22;5037574;28;19929;-75
2023/06/25 05:49:26;;;;;;;;;;;;;;;16.86;100.00;96179.31;5044560;28;19948;-75
2023/06/25 05:51:52;;;;;;;;;;;;;;;17.25;100.00;96178.78;5043327;28;19979;-76
2023/06/25 05:54:19;;;;;;;;;;;;;;;17.47;100.00;96172.59;5042250;28;19925;-75
2023/06/25 05:56:46;;;;;;;;;;;;;;;17.52;98.57;96179.09;5039581;28;20384;-76
2023/06/25 05:59:12;;;;;;;;;;;;;;;17.57;97.15;96176.91;5051352;28;20286;-75
2023/06/25 06:01:39;;;;;;;;;;;;;;;17.79;97.04;96175.13;5050990;28;19932;-75
2023/06/25 06:04:05;;;;;;;;;;;;;;;17.76;95.61;96181.47;5051538;28;20326;-76
2023/06/25 06:06:31;;;;;;;;;;;;;;;17.69;95.36;96179.44;5046250;28;19925;-76
2023/06/25 06:08:58;;;;;;;;;;;;;;;17.86;93.98;96171.03;5041502;28;19975;-76
2023/06/25 06:11:24;;;;;;;;;;;;;;;18.20;99.04;96175.97;5046385;28;19937;-76
2023/06/25 06:13:51;;;;;;;;;;;;;;;18.48;96.48;96179.66;5044389;28;19952;-76
2023/06/25 06:16:18;;;;;;;;;;;;;;;18.74;90.62;96180.81;5043513;28;20342;-76
2023/06/25 06:18:44;;;;;;;;;;;;;;;18.59;88.63;96185.59;5045870;28;19925;-76
2023/06/25 06:21:10;;;;;;;;;;;;;;;18.78;87.54;96181.38;5047910;28;19933;-76
2023/06/25 06:23:36;;;;;;;;;;;;;;;18.98;82.96;96185.66;5049116;28;20268;-76
2023/06/25 06:26:03;;;;;;;;;;;;;;;19.03;84.65;96180.84;5046895;28;19947;-76
2023/06/25 06:28:29;;;;;;;;;;;;;;;19.47;88.46;96175.16;5046039;28;19925;-76
2023/06/25 06:30:57;;;;;;;;;;;;;;;19.78;83.41;96184.50;5044426;28;19929;-76
2023/06/25 06:33:23;;;;;;;;;;;;;;;20.04;80.09;96173.34;5044564;28;19932;-76
2023/06/25 06:35:49;;;;;;;;;;;;;;;20.39;78.97;96180.47;5033670;28;19925;-75
2023/06/25 06:38:15;;;;;;;;;;;;;;;20.59;77.19;96173.34;5047863;28;19936;-76
2023/06/25 06:40:42;;;;;;;;;;;;;;;20.83;74.78;96185.09;5048345;28;19932;-75
2023/06/25 06:43:08;;;;;;;;;;;;;;;20.69;75.32;96181.16;5052337;28;19935;-76
2023/06/25 06:45:34;;;;;;;;;;;;;;;20.55;75.52;96177.25;5047964;28;20338;-76
2023/06/25 06:48:02;;;;;;;;;;;;;;;20.71;75.88;96173.97;5052435;28;19936;-75
2023/06/25 06:50:28;;;;;;;;;;;;;;;20.71;75.10;96180.06;5045608;28;19932;-76
2023/06/25 06:52:54;;;;;;;;;;;;;;;20.77;73.37;96174.22;5051634;28;19955;-75
2023/06/25 06:55:20;;;;;;;;;;;;;;;20.74;72.86;96166.59;5052775;28;20310;-75
2023/06/25 06:57:47;;;;;;;;;;;;;;;20.99;71.29;96167.66;5043849;28;20452;-75
2023/06/25 07:00:15;;;;;;;;;;;;;;;21.10;70.30;96171.88;5044860;28;19964;-75
2023/06/25 07:02:42;;;;;;;;;;;;;;;21.10;67.61;96166.63;5048972;28;20313;-75
2023/06/25 07:05:09;;;;;;;;;;;;;;;21.45;67.28;96168.38;5053364;28;20387;-75
2023/06/25 07:07:36;;;;;;;;;;;;;;;21.91;66.20;96166.34;5049804;28;19931;-75
2023/06/25 07:10:02;;;;;;;;;;;;;;;22.42;66.16;96164.63;5046838;28;19932;-75
2023/06/25 07:12:28;;;;;;;;;;;;;;;22.48;61.50;96157.91;5048524;28;19929;-72
2023/06/25 07:14:54;;;;;;;;;;;;;;;22.91;61.52;96164.78;5050840;28;20447;-72
2023/06/25 07:17:21;;;;;;;;;;;;;;;23.13;62.98;96159.84;5049567;28;19924;-72
2023/06/25 07:19:47;;;;;;;;;;;;;;;23.48;58.35;96163.97;5050129;28;19966;-72
2023/06/25 07:22:15;;;;;;;;;;;;;;;23.67;62.77;96161.00;5048924;28;19978;-72
2023/06/25 07:24:42;;;;;;;;;;;;;;;23.82;56.04;96161.13;5053260;28;19932;-72
2023/06/25 07:27:08;;;;;;;;;;;;;;;23.86;51.92;96162.44;5050207;28;19998;-72
2023/06/25 07:29:34;;;;;;;;;;;;;;;24.24;48.63;96156.53;5048818;28;20292;-72
2023/06/25 07:32:00;;;;;;;;;;;;;;;24.41;47.32;96165.28;5047414;28;19924;-70
2023/06/25 07:34:27;;;;;;;;;;;;;;;24.62;47.47;96160.19;5050243;28;19932;-72
2023/06/25 07:36:53;;;;;;;;;;;;;;;24.83;50.08;96157.75;5046726;28;20383;-72
2023/06/25 07:39:29;;;;;;;;;;;;;;;25.06;48.39;96151.63;5049855;28;19925;-73
2023/06/25 07:41:56;;;;;;;;;;;;;;;25.23;48.07;96149.72;5042669;28;19925;-73
2023/06/25 07:44:22;;;;;;;;;;;;;;;25.08;44.46;96147.00;5050394;28;19925;-72
2023/06/25 07:46:49;;;;;;;;;;;;;;;25.26;44.89;96155.50;5044757;28;19933;-72
2023/06/25 07:49:15;;;;;;;;;;;;;;;25.29;45.43;96163.09;5052223;28;20395;-73
2023/06/25 07:51:44;;;;;;;;;;;;;;;25.06;47.95;96152.44;5048984;28;19925;-72
2023/06/25 07:54:10;;;;;;;;;;;;;;;25.14;45.49;96154.28;5045741;28;19982;-70
2023/06/25 07:56:37;;;;;;;;;;;;;;;25.27;46.28;96154.47;5048977;28;19978;-72
2023/06/25 07:59:04;;;;;;;;;;;;;;;25.21;41.82;96157.84;5047349;28;19931;-73
2023/06/25 08:01:31;;;;;;;;;;;;;;;25.35;43.40;96164.19;5046832;28;19929;-73
2023/06/25 08:03:57;;;;;;;;;;;;;;;25.52;42.59;96157.75;5051388;28;19929;-73
2023/06/25 08:06:24;;;;;;;;;;;;;;;25.58;41.26;96151.72;5052640;28;19925;-72
2023/06/25 08:08:50;;;;;;;;;;;;;;;25.77;41.72;96150.38;5051910;28;20031;-74
2023/06/25 08:11:16;;;;;;;;;;;;;;;25.81;43.11;96149.06;5047163;28;19929;-74
2023/06/25 08:13:44;;;;;;;;;;;;;;;25.92;43.10;96149.56;5047123;28;19975;-74
2023/06/25 08:16:10;;;;;;;;;;;;;;;25.89;43.79;96144.66;5044954;28;19929;-74
2023/06/25 08:18:36;;;;;;;;;;;;;;;25.49;42.69;96157.28;5047651;28;19925;-74
2023/06/25 08:21:03;;;;;;;;;;;;;;;25.77;41.10;96154.84;5045971;28;20375;-75
2023/06/25 08:23:29;;;;;;;;;;;;;;;25.82;44.37;96153.34;5050366;28;20434;-75
2023/06/25 08:25:55;;;;;;;;;;;;;;;26.03;42.10;96146.47;5051960;28;20432;-75
2023/06/25 08:28:22;;;;;;;;;;;;;;;25.74;42.44;96156.06;5047782;28;20035;-75
2023/06/25 08:30:49;;;;;;;;;;;;;;;25.88;39.37;96143.81;5042131;28;20022;-73
2023/06/25 08:33:16;;;;;;;;;;;;;;;25.92;40.64;96142.47;5048221;28;19932;-73
2023/06/25 08:35:42;;;;;;;;;;;;;;;25.86;37.67;96143.19;5050270;28;19933;-73
2023/06/25 08:38:08;;;;;;;;;;;;;;;26.10;37.80;96144.72;5047708;28;19971;-73
2023/06/25 08:40:35;;;;;;;;;;;;;;;26.26;37.37;96157.00;5051774;28;19933;-73
2023/06/25 08:43:01;;;;;;;;;;;;;;;26.17;38.83;96147.47;5043826;28;19929;-72
2023/06/25 08:45:28;;;;;;;;;;;;;;;26.37;37.20;96153.06;5047785;28;19928;-73
2023/06/25 08:47:56;;;;;;;;;;;;;;;25.89;39.69;96145.47;5051585;28;20027;-72
2023/06/25 08:50:23;;;;;;;;;;;;;;;25.94;40.01;96139.63;5047564;28;20280;-72
2023/06/25 08:52:50;;;;;;;;;;;;;;;25.94;36.34;96140.44;5050512;28;19932;-73
2023/06/25 08:55:16;;;;;;;;;;;;;;;25.97;35.82;96142.72;5049685;28;19932;-73
2023/06/25 08:57:43;;;;;;;;;;;;;;;25.81;36.98;96138.44;5042936;28;20438;-72
2023/06/25 09:00:09;;;;;;;;;;;;;;;25.72;37.53;96141.31;5050993;28;19936;-72
2023/06/25 09:02:36;;;;;;;;;;;;;;;25.68;39.60;96143.50;5048078;28;19970;-72
2023/06/25 09:05:07;;;;;;;;;;;;;;;26.04;38.05;96140.19;5050683;28;19929;-72
2023/06/25 09:07:34;;;;;;;;;;;;;;;26.25;38.66;96134.94;5045755;28;19968;-73
2023/06/25 09:10:00;;;;;;;;;;;;;;;26.53;36.50;96131.63;5048789;28;20370;-73
2023/06/25 09:12:26;;;;;;;;;;;;;;;26.53;35.21;96145.72;5042382;28;19979;-73
2023/06/25 09:14:53;;;;;;;;;;;;;;;26.64;37.45;96140.94;5044686;28;19928;-73
2023/06/25 09:17:20;;;;;;;;;;;;;;;26.70;36.12;96125.06;5049450;28;19928;-73
2023/06/25 09:19:47;;;;;;;;;;;;;;;26.63;37.12;96134.00;5044202;28;19925;-71
2023/06/25 09:22:14;;;;;;;;;;;;;;;26.63;36.82;96139.31;5046054;28;19948;-72
2023/06/25 09:24:42;;;;;;;;;;;;;;;26.76;36.95;96132.28;5044436;28;19924;-76
2023/06/25 09:27:10;;;;;;;;;;;;;;;27.02;35.21;96133.56;5048454;28;19947;-74
2023/06/25 09:29:36;;;;;;;;;;;;;;;27.27;34.81;96126.88;5046197;28;19925;-75
2023/06/25 09:32:06;;;;;;;;;;;;;;;27.34;36.89;96129.59;5042532;28;19925;-75
2023/06/25 09:34:33;;;;;;;;;;;;;;;27.48;33.40;96130.53;5048267;28;20391;-75
2023/06/25 09:36:59;;;;;;;;;;;;;;;27.74;34.81;96117.44;5047440;28;19936;-75
2023/06/25 09:39:27;;;;;;;;;;;;;;;27.74;34.76;96112.13;5047832;28;19952;-76
2023/06/25 09:41:54;;;;;;;;;;;;;;;27.84;33.36;96119.72;5045263;28;20300;-75
2023/06/25 09:44:22;;;;;;;;;;;;;;;27.84;33.52;96122.38;5043193;28;19925;-76
2023/06/25 09:46:52;;;;;;;;;;;;;;;27.95;34.01;96113.03;5045348;28;20055;-76
2023/06/25 09:49:19;;;;;;;;;;;;;;;27.95;34.42;96113.84;5042334;28;19932;-75
2023/06/25 09:51:50;;;;;;;;;;;;;;;27.85;33.81;96104.56;5045730;28;19925;-75
2023/06/25 09:54:19;;;;;;;;;;;;;;;27.96;32.54;96098.72;5049517;28;19925;-75
2023/06/25 09:56:49;;;;;;;;;;;;;;;27.86;34.28;96093.75;5050760;28;19929;-75
2023/06/25 09:59:16;;;;;;;;;;;;;;;27.91;32.56;96101.13;5048528;28;19933;-75
2023/06/25 10:01:42;;;;;;;;;;;;;;;27.55;34.59;96103.94;5046520;28;19925;-75
2023/06/25 10:04:09;;;;;;;;;;;;;;;27.48;33.40;96109.25;5047251;28;19929;-75
2023/06/25 10:06:36;;;;;;;;;;;;;;;27.53;33.54;96103.34;5050420;28;19932;-75
2023/06/25 10:09:02;;;;;;;;;;;;;;;27.58;34.57;96104.38;5042620;28;20009;-75
2023/06/25 10:11:29;;;;;;;;;;;;;;;27.58;31.59;96098.25;5044979;28;19933;-76
2023/06/25 10:13:57;;;;;;;;;;;;;;;27.53;34.83;96093.50;5049335;28;20350;-75
2023/06/25 10:16:23;;;;;;;;;;;;;;;27.66;33.57;96090.09;5050502;28;19926;-76
2023/06/25 10:18:53;;;;;;;;;;;;;;;27.58;34.66;96093.75;5054119;28;19963;-75
2023/06/25 10:21:20;;;;;;;;;;;;;;;27.63;32.67;96096.66;5049370;28;20354;-75
2023/06/25 10:23:53;;;;;;;;;;;;;;;27.62;33.53;96092.34;5047662;28;20388;-75
2023/06/25 10:26:19;;;;;;;;;;;;;;;27.81;33.99;96077.56;5049859;28;19936;-75
2023/06/25 10:28:51;;;;;;;;;;;;;;;27.78;31.45;96085.94;5053858;28;19928;-76
2023/06/25 10:31:18;;;;;;;;;;;;;;;27.88;31.19;96080.22;5048018;28;19932;-74
2023/06/25 10:33:45;;;;;;;;;;;;;;;28.14;33.03;96077.69;5053959;28;19974;-76
2023/06/25 10:36:12;;;;;;;;;;;;;;;28.27;30.96;96079.59;5049513;28;19971;-76
2023/06/25 10:38:38;;;;;;;;;;;;;;;28.50;34.01;96073.97;5054243;28;19928;-75
2023/06/25 10:41:04;;;;;;;;;;;;;;;28.60;31.18;96081.59;5052001;28;19925;-76
2023/06/25 10:43:31;;;;;;;;;;;;;;;28.78;32.04;96076.50;5050298;28;19929;-75
2023/06/25 10:45:58;;;;;;;;;;;;;;;28.68;32.55;96073.41;5054539;28;20342;-76
2023/06/25 10:48:26;;;;;;;;;;;;;;;28.82;30.55;96068.91;5045825;28;20295;-75
2023/06/25 10:50:52;;;;;;;;;;;;;;;28.77;33.45;96071.34;5046548;28;19967;-75
2023/06/25 10:53:20;;;;;;;;;;;;;;;28.89;34.23;96067.91;5052908;28;19936;-76
2023/06/25 10:55:47;;;;;;;;;;;;;;;29.02;30.69;96064.44;5053850;28;19929;-76
2023/06/25 10:58:14;;;;;;;;;;;;;;;29.02;29.30;96067.09;5053668;28;20296;-75
2023/06/25 11:00:41;;;;;;;;;;;;;;;28.66;28.64;96062.94;5048391;28;19932;-75
2023/06/25 11:03:07;;;;;;;;;;;;;;;28.57;29.55;96058.81;5045183;28;20517;-76
2023/06/25 11:05:35;;;;;;;;;;;;;;;28.83;31.85;96065.22;5053254;28;19924;-75
2023/06/25 11:08:04;;;;;;;;;;;;;;;28.67;32.05;96064.59;5047248;28;20268;-76
2023/06/25 11:10:30;;;;;;;;;;;;;;;28.62;29.95;96061.69;5053841;28;20023;-76
2023/06/25 11:12:57;;;;;;;;;;;;;;;28.66;29.65;96056.78;5053659;28;19925;-76
2023/06/25 11:15:23;;;;;;;;;;;;;;;28.70;31.28;96058.00;5046685;28;19929;-76
2023/06/25 11:17:51;;;;;;;;;;;;;;;28.70;30.91;96056.19;5053968;28;20272;-76
2023/06/25 11:20:17;;;;;;;;;;;;;;;28.52;30.90;96055.13;5052913;28;20024;-76
2023/06/25 11:22:45;;;;;;;;;;;;;;;28.64;29.46;96054.31;5053643;28;20329;-76
2023/06/25 11:25:12;;;;;;;;;;;;;;;28.60;26.85;96060.28;5043958;28;19979;-76
2023/06/25 11:27:38;;;;;;;;;;;;;;;28.78;28.63;96055.19;5041123;28;19936;-76
2023/06/25 11:30:05;;;;;;;;;;;;;;;28.48;31.82;96054.72;5048420;28;20271;-76
2023/06/25 11:32:31;;;;;;;;;;;;;;;28.46;27.83;96054.06;5047054;28;19924;-76
2023/06/25 11:34:58;;;;;;;;;;;;;;;28.47;28.07;96045.06;5051408;28;19971;-76
2023/06/25 11:37:27;;;;;;;;;;;;;;;28.59;31.49;96043.47;5049301;28;19964;-75
2023/06/25 11:39:54;;;;;;;;;;;;;;;28.20;31.33;96046.78;5046225;28;20390;-76
2023/06/25 11:42:22;;;;;;;;;;;;;;;28.29;29.73;96040.25;5048281;28;19925;-74
2023/06/25 11:44:58;;;;;;;;;;;;;;;28.30;30.06;96046.44;5046414;28;20373;-75
2023/06/25 11:47:24;;;;;;;;;;;;;;;28.07;29.46;96028.94;5047929;28;20295;-76
2023/06/25 11:49:52;;;;;;;;;;;;;;;28.03;29.77;96026.84;5042463;28;19971;-76
2023/06/25 11:52:18;;;;;;;;;;;;;;;28.36;34.24;96029.63;5050709;28;20011;-75
2023/06/25 11:54:45;;;;;;;;;;;;;;;28.60;30.28;96025.63;5051511;28;20379;-74
2023/06/25 11:57:12;;;;;;;;;;;;;;;28.75;30.20;96017.44;5051791;28;20338;-76
2023/06/25 11:59:38;;;;;;;;;;;;;;;28.72;29.84;96020.50;5051542;28;19925;-76
2023/06/25 12:02:05;;;;;;;;;;;;;;;28.87;30.74;96015.81;5043873;28;19936;-75
2023/06/25 12:04:31;;;;;;;;;;;;;;;28.79;31.10;96022.16;5046360;28;19936;-75
2023/06/25 12:06:58;;;;;;;;;;;;;;;28.81;32.07;96014.78;5043233;28;19925;-75
2023/06/25 12:09:24;;;;;;;;;;;;;;;28.78;31.08;96017.84;5047646;28;19983;-75
2023/06/25 12:11:50;;;;;;;;;;;;;;;28.52;30.25;96013.31;5045881;28;20378;-75
2023/06/25 12:14:18;;;;;;;;;;;;;;;28.63;32.71;96019.91;5043283;28;19928;-75
2023/06/25 12:16:44;;;;;;;;;;;;;;;28.69;29.67;96014.56;5051706;28;19925;-76
2023/06/25 12:19:10;;;;;;;;;;;;;;;28.55;30.52;96017.41;5041119;28;20419;-76
2023/06/25 12:21:36;;;;;;;;;;;;;;;28.72;30.13;96007.19;5041901;28;19932;-75
2023/06/25 12:24:04;;;;;;;;;;;;;;;28.78;30.03;96009.88;5044492;28;19925;-75
2023/06/25 12:26:30;;;;;;;;;;;;;;;28.80;30.71;95996.31;5047136;28;19929;-75
2023/06/25 12:28:57;;;;;;;;;;;;;;;28.79;30.56;96010.69;5044908;28;20299;-76
2023/06/25 12:31:24;;;;;;;;;;;;;;;28.68;30.05;95999.59;5039863;28;20429;-75
2023/06/25 12:33:51;;;;;;;;;;;;;;;28.55;29.74;95988.91;5046471;28;19924;-76
2023/06/25 12:36:17;;;;;;;;;;;;;;;28.58;31.82;95996.50;5043916;28;19925;-75
2023/06/25 12:38:43;;;;;;;;;;;;;;;28.44;28.98;95995.69;5050067;28;19932;-76
2023/06/25 12:41:09;;;;;;;;;;;;;;;28.67;30.44;95989.16;5051865;28;19936;-75